createdAt,value
2022-08-29T00:01:30.490Z,23.71
2022-08-29T00:03:59.269Z,23.96
2022-08-29T00:06:26.367Z,24.08
2022-08-29T00:08:53.142Z,23.97
2022-08-29T00:11:22.953Z,23.82
2022-08-29T00:13:51.302Z,23.59
2022-08-29T00:16:19.016Z,23.71
2022-08-29T00:18:47.040Z,23.56
2022-08-29T00:21:14.903Z,23.65
2022-08-29T00:23:43.936Z,23.60
2022-08-29T00:27:02.011Z,23.63
2022-08-29T00:29:30.077Z,23.56
2022-08-29T00:31:56.982Z,23.47
2022-08-29T00:34:23.761Z,23.52
2022-08-29T00:36:51.984Z,23.51
2022-08-29T00:39:18.987Z,23.45
2022-08-29T00:41:50.771Z,23.35
2022-08-29T00:44:17.495Z,23.56
2022-08-29T00:46:51.690Z,23.64
2022-08-29T00:49:37.479Z,23.69
2022-08-29T00:52:44.605Z,23.65
2022-08-29T00:55:15.169Z,23.57
2022-08-29T00:57:46.738Z,23.57
2022-08-29T01:00:16.196Z,23.52
2022-08-29T01:02:43.237Z,23.52
2022-08-29T01:05:13.210Z,23.45
2022-08-29T01:07:41.487Z,23.40
2022-08-29T01:10:13.319Z,23.20
2022-08-29T01:12:42.116Z,23.36
2022-08-29T01:15:13.006Z,23.27
2022-08-29T01:17:47.293Z,23.27
2022-08-29T01:20:23.764Z,23.26
2022-08-29T01:23:09.108Z,23.26
2022-08-29T01:25:41.113Z,23.09
2022-08-29T01:28:23.473Z,23.14
2022-08-29T01:31:06.352Z,23.24
2022-08-29T01:34:02.564Z,23.19
2022-08-29T01:36:47.651Z,23.10
2022-08-29T01:39:14.355Z,22.96
2022-08-29T01:41:43.283Z,23.00
2022-08-29T01:44:13.121Z,23.07
2022-08-29T01:46:40.694Z,22.98
2022-08-29T01:49:09.875Z,22.98
2022-08-29T01:51:41.562Z,22.99
2022-08-29T01:54:10.519Z,23.08
2022-08-29T01:56:40.441Z,23.12
2022-08-29T01:59:15.401Z,23.14
2022-08-29T02:01:46.669Z,23.06
2022-08-29T02:04:13.335Z,23.05
2022-08-29T02:06:40.339Z,23.01
2022-08-29T02:09:11.335Z,22.87
2022-08-29T02:11:40.006Z,22.90
2022-08-29T02:14:08.035Z,22.99
2022-08-29T02:16:44.468Z,22.92
2022-08-29T02:19:12.583Z,22.90
2022-08-29T02:21:39.516Z,22.94
2022-08-29T02:24:23.917Z,22.83
2022-08-29T02:26:54.003Z,22.79
2022-08-29T02:29:20.685Z,22.71
2022-08-29T02:31:48.774Z,22.58
2022-08-29T02:34:16.626Z,22.84
2022-08-29T02:36:44.023Z,22.75
2022-08-29T02:39:11.715Z,22.83
2022-08-29T02:41:41.201Z,22.74
2022-08-29T02:44:11.933Z,22.91
2022-08-29T02:46:38.816Z,22.83
2022-08-29T02:49:05.567Z,22.91
2022-08-29T02:51:33.881Z,23.04
2022-08-29T02:54:01.414Z,23.12
2022-08-29T02:56:30.151Z,23.10
2022-08-29T02:59:00.474Z,23.16
2022-08-29T03:01:33.458Z,23.09
2022-08-29T03:04:04.842Z,22.95
2022-08-29T03:06:31.657Z,22.98
2022-08-29T03:08:58.399Z,23.09
2022-08-29T03:11:25.247Z,22.96
2022-08-29T03:13:51.943Z,23.10
2022-08-29T03:16:24.392Z,22.90
2022-08-29T03:18:51.098Z,23.07
2022-08-29T03:21:26.385Z,22.96
2022-08-29T03:23:56.277Z,23.00
2022-08-29T03:26:27.992Z,22.98
2022-08-29T03:28:55.760Z,22.88
2022-08-29T03:31:22.689Z,22.68
2022-08-29T03:33:49.639Z,22.73
2022-08-29T03:36:16.789Z,22.75
2022-08-29T03:38:48.404Z,22.73
2022-08-29T03:41:27.211Z,22.55
2022-08-29T03:43:55.518Z,22.53
2022-08-29T03:46:23.063Z,22.66
2022-08-29T03:48:50.180Z,22.58
2022-08-29T03:51:17.848Z,22.57
2022-08-29T03:53:45.096Z,22.72
2022-08-29T03:56:18.117Z,22.71
2022-08-29T03:58:52.859Z,22.72
2022-08-29T04:01:25.074Z,22.63
2022-08-29T04:03:54.382Z,22.57
2022-08-29T04:06:23.360Z,22.65
2022-08-29T04:08:54.155Z,22.67
2022-08-29T04:11:24.304Z,22.60
2022-08-29T04:13:53.208Z,22.61
2022-08-29T04:16:23.453Z,22.58
2022-08-29T04:18:50.368Z,22.45
2022-08-29T04:21:19.427Z,22.55
2022-08-29T04:23:48.062Z,22.56
2022-08-29T04:26:37.886Z,22.74
2022-08-29T04:29:07.140Z,22.71
2022-08-29T04:31:36.954Z,22.63
2022-08-29T04:34:07.243Z,22.76
2022-08-29T04:36:40.507Z,22.76
2022-08-29T04:39:10.017Z,22.70
2022-08-29T04:41:38.819Z,22.66
2022-08-29T04:44:10.658Z,22.99
2022-08-29T04:46:38.605Z,22.89
2022-08-29T04:49:09.974Z,23.00
2022-08-29T04:51:36.901Z,22.91
2022-08-29T04:54:05.019Z,23.10
2022-08-29T04:56:31.819Z,22.98
2022-08-29T04:58:59.706Z,23.10
2022-08-29T05:01:27.718Z,23.41
2022-08-29T05:03:55.761Z,23.53
2022-08-29T05:06:27.414Z,23.71
2022-08-29T05:08:59.939Z,23.75
2022-08-29T05:11:29.095Z,23.84
2022-08-29T05:13:55.810Z,23.99
2022-08-29T05:16:22.813Z,24.10
2022-08-29T05:18:49.623Z,24.02
2022-08-29T05:21:25.827Z,24.23
2022-08-29T05:23:55.306Z,24.46
2022-08-29T05:26:22.103Z,24.56
2022-08-29T05:28:49.773Z,24.57
2022-08-29T05:31:16.636Z,25.03
2022-08-29T05:33:44.758Z,25.09
2022-08-29T05:36:11.448Z,25.48
2022-08-29T05:38:39.767Z,25.60
2022-08-29T05:41:08.080Z,25.72
2022-08-29T05:43:35.447Z,26.11
2022-08-29T05:46:08.358Z,26.14
2022-08-29T05:48:36.168Z,26.04
2022-08-29T05:51:05.335Z,25.83
2022-08-29T05:53:32.029Z,25.73
2022-08-29T05:56:00.777Z,25.96
2022-08-29T05:58:28.444Z,25.85
2022-08-29T06:00:55.102Z,25.96
2022-08-29T06:03:23.270Z,26.07
2022-08-29T06:05:52.404Z,26.30
2022-08-29T06:08:21.813Z,26.51
2022-08-29T06:10:49.856Z,26.55
2022-08-29T06:13:16.577Z,27.04
2022-08-29T06:15:45.736Z,26.95
2022-08-29T06:18:13.373Z,27.27
2022-08-29T06:20:40.976Z,27.56
2022-08-29T06:23:08.609Z,28.01
2022-08-29T06:25:39.290Z,28.19
2022-08-29T06:28:08.191Z,28.33
2022-08-29T06:30:34.908Z,28.70
2022-08-29T06:33:05.541Z,28.81
2022-08-29T06:35:32.174Z,28.49
2022-08-29T06:37:58.838Z,28.37
2022-08-29T06:40:25.581Z,27.88
2022-08-29T06:42:52.324Z,27.82
2022-08-29T06:45:19.076Z,27.74
2022-08-29T06:47:49.781Z,27.68
2022-08-29T06:50:18.262Z,27.78
2022-08-29T06:52:47.091Z,27.67
2022-08-29T06:55:21.693Z,27.39
2022-08-29T06:57:51.018Z,27.37
2022-08-29T07:00:21.444Z,27.58
2022-08-29T07:02:51.723Z,27.67
2022-08-29T07:05:20.654Z,27.95
2022-08-29T07:07:50.522Z,28.07
2022-08-29T07:10:22.276Z,28.00
2022-08-29T07:12:49.792Z,27.84
2022-08-29T07:15:16.510Z,27.74
2022-08-29T07:17:43.267Z,27.96
2022-08-29T07:20:11.068Z,28.11
2022-08-29T07:22:37.816Z,28.30
2022-08-29T07:25:04.994Z,28.38
2022-08-29T07:27:31.928Z,28.48
2022-08-29T07:30:00.551Z,28.76
2022-08-29T07:32:27.229Z,28.87
2022-08-29T07:34:56.136Z,28.63
2022-08-29T07:37:23.684Z,28.30
2022-08-29T07:39:51.812Z,28.30
2022-08-29T07:42:19.426Z,28.11
2022-08-29T07:44:46.082Z,28.46
2022-08-29T07:47:12.829Z,28.66
2022-08-29T07:49:42.379Z,28.92
2022-08-29T07:52:09.276Z,29.00
2022-08-29T07:54:36.093Z,28.79
2022-08-29T07:57:02.864Z,29.13
2022-08-29T07:59:33.697Z,29.53
2022-08-29T08:02:00.501Z,29.56
2022-08-29T08:04:27.189Z,29.45
2022-08-29T08:06:58.704Z,29.50
2022-08-29T08:09:25.574Z,29.45
2022-08-29T08:11:53.703Z,29.21
2022-08-29T08:14:20.384Z,29.44
2022-08-29T08:16:48.488Z,29.38
2022-08-29T08:19:16.449Z,29.17
2022-08-29T08:21:49.773Z,29.26
2022-08-29T08:24:20.030Z,29.38
2022-08-29T08:26:48.761Z,29.67
2022-08-29T08:29:16.131Z,29.90
2022-08-29T08:31:49.613Z,30.03
2022-08-29T08:34:17.983Z,29.91
2022-08-29T08:36:46.189Z,30.24
2022-08-29T08:39:16.035Z,30.37
2022-08-29T08:42:24.897Z,30.89
2022-08-29T08:45:03.171Z,31.24
2022-08-29T08:48:19.762Z,30.93
2022-08-29T08:50:59.774Z,31.08
2022-08-29T08:53:37.826Z,31.47
2022-08-29T08:56:22.502Z,31.86
2022-08-29T08:58:53.282Z,31.87
2022-08-29T09:01:30.209Z,31.46
2022-08-29T09:04:04.218Z,31.54
2022-08-29T09:06:34.084Z,31.38
2022-08-29T09:09:14.840Z,31.51
2022-08-29T09:12:05.844Z,31.95
2022-08-29T09:14:55.811Z,32.12
2022-08-29T09:17:52.881Z,32.43
2022-08-29T09:20:23.845Z,32.74
2022-08-29T09:23:01.089Z,32.24
2022-08-29T09:25:29.562Z,31.75
2022-08-29T09:28:00.007Z,32.19
2022-08-29T09:30:33.742Z,32.26
2022-08-29T09:33:11.022Z,32.43
2022-08-29T09:35:40.949Z,32.44
2022-08-29T09:38:28.856Z,32.91
2022-08-29T09:41:15.350Z,33.20
2022-08-29T09:43:41.972Z,33.62
2022-08-29T09:46:19.021Z,33.83
2022-08-29T09:49:24.538Z,34.10
2022-08-29T09:51:51.729Z,34.09
2022-08-29T09:54:33.034Z,34.09
2022-08-29T09:57:20.871Z,34.01
2022-08-29T10:00:12.452Z,33.68
2022-08-29T10:02:45.113Z,33.51
2022-08-29T10:05:45.689Z,33.42
2022-08-29T10:08:26.586Z,33.25
2022-08-29T10:10:59.586Z,33.26
2022-08-29T10:13:40.839Z,33.56
2022-08-29T10:16:17.744Z,33.34
2022-08-29T10:18:58.925Z,33.05
2022-08-29T10:22:03.037Z,32.69
2022-08-29T10:24:53.225Z,32.17
2022-08-29T10:27:43.412Z,32.30
2022-08-29T10:30:27.420Z,32.30
2022-08-29T10:33:21.977Z,31.71
2022-08-29T10:36:06.897Z,31.87
2022-08-29T10:38:43.650Z,31.90
2022-08-29T10:41:39.403Z,32.22
2022-08-29T10:44:44.480Z,33.07
2022-08-29T10:47:19.149Z,33.85
2022-08-29T10:50:27.620Z,34.48
2022-08-29T10:53:14.785Z,34.87
2022-08-29T10:56:07.925Z,34.86
2022-08-29T10:58:42.911Z,34.89
2022-08-29T11:01:23.557Z,35.43
2022-08-29T11:04:19.813Z,36.10
2022-08-29T11:07:00.534Z,36.46
2022-08-29T11:09:39.029Z,36.74
2022-08-29T11:12:17.730Z,36.61
2022-08-29T11:15:05.341Z,36.73
2022-08-29T11:17:42.576Z,36.16
2022-08-29T11:20:20.595Z,36.29
2022-08-29T11:22:53.310Z,36.50
2022-08-29T11:25:23.114Z,36.60
2022-08-29T11:28:10.206Z,36.55
2022-08-29T11:30:55.824Z,36.68
2022-08-29T11:33:28.632Z,36.79
2022-08-29T11:36:07.681Z,36.66
2022-08-29T11:38:47.857Z,36.23
2022-08-29T11:41:49.313Z,36.46
2022-08-29T11:44:55.313Z,36.80
2022-08-29T11:47:40.404Z,36.75
2022-08-29T11:50:17.166Z,36.52
2022-08-29T11:53:11.784Z,36.71
2022-08-29T11:56:06.702Z,36.85
2022-08-29T11:58:33.460Z,37.16
2022-08-29T12:01:00.213Z,37.12
2022-08-29T12:03:33.241Z,37.46
2022-08-29T12:06:43.476Z,37.39
2022-08-29T12:09:14.078Z,37.40
2022-08-29T12:12:02.571Z,37.56
2022-08-29T12:14:36.934Z,37.68
2022-08-29T12:17:10.323Z,38.09
2022-08-29T12:20:18.002Z,38.62
2022-08-29T12:23:11.460Z,37.87
2022-08-29T12:25:44.993Z,38.35
2022-08-29T12:28:33.146Z,39.01
2022-08-29T12:31:01.273Z,39.49
2022-08-29T12:33:55.916Z,38.96
2022-08-29T12:36:26.516Z,37.59
2022-08-29T12:39:27.147Z,37.35
2022-08-29T12:42:05.909Z,37.20
2022-08-29T12:44:38.130Z,36.99
2022-08-29T12:47:11.617Z,36.86
2022-08-29T12:49:51.563Z,37.06
2022-08-29T12:52:32.200Z,36.95
2022-08-29T12:55:17.849Z,36.88
2022-08-29T12:57:54.448Z,36.77
2022-08-29T13:00:30.333Z,36.52
2022-08-29T13:03:17.427Z,36.43
2022-08-29T13:05:44.876Z,36.12
2022-08-29T13:08:15.972Z,35.88
2022-08-29T13:10:59.305Z,35.61
2022-08-29T13:13:28.476Z,35.48
2022-08-29T13:16:00.939Z,35.36
2022-08-29T13:18:29.155Z,35.10
2022-08-29T13:21:19.493Z,35.06
2022-08-29T13:24:14.641Z,34.97
2022-08-29T13:27:05.001Z,34.84
2022-08-29T13:29:39.881Z,34.56
2022-08-29T13:32:23.978Z,34.57
2022-08-29T13:35:15.844Z,34.44
2022-08-29T13:37:46.333Z,34.39
2022-08-29T13:40:30.391Z,34.21
2022-08-29T13:42:59.065Z,34.13
2022-08-29T13:45:26.537Z,34.15
2022-08-29T13:47:58.558Z,34.11
2022-08-29T13:50:26.870Z,34.02
2022-08-29T13:52:56.169Z,34.03
2022-08-29T13:55:25.493Z,33.95
2022-08-29T13:57:54.827Z,33.81
2022-08-29T14:00:34.851Z,33.78
2022-08-29T14:03:03.498Z,33.65
2022-08-29T14:05:30.415Z,33.50
2022-08-29T14:07:57.628Z,33.46
2022-08-29T14:10:24.415Z,33.32
2022-08-29T14:12:51.155Z,33.28
2022-08-29T14:15:18.519Z,33.18
2022-08-29T14:17:47.752Z,33.36
2022-08-29T14:20:19.443Z,33.26
2022-08-29T14:22:47.049Z,33.25
2022-08-29T14:25:18.606Z,33.43
2022-08-29T14:27:47.522Z,33.18
2022-08-29T14:30:17.212Z,33.29
2022-08-29T14:32:43.985Z,33.16
2022-08-29T14:35:11.331Z,32.89
2022-08-29T14:37:53.318Z,32.93
2022-08-29T14:40:21.857Z,32.96
2022-08-29T14:42:52.362Z,33.29
2022-08-29T14:45:19.125Z,33.11
2022-08-29T14:47:49.980Z,33.29
2022-08-29T14:50:17.155Z,33.18
2022-08-29T14:52:44.468Z,33.13
2022-08-29T14:55:13.351Z,33.16
2022-08-29T14:57:41.026Z,33.00
2022-08-29T15:00:16.291Z,33.01
2022-08-29T15:05:29.615Z,32.66
2022-08-29T15:07:56.488Z,32.79
2022-08-29T15:10:24.869Z,32.58
2022-08-29T15:12:52.308Z,32.41
2022-08-29T15:15:20.889Z,32.61
2022-08-29T15:17:50.684Z,32.30
2022-08-29T15:20:35.625Z,32.45
2022-08-29T15:23:05.012Z,32.43
2022-08-29T15:25:31.818Z,32.33
2022-08-29T15:28:01.141Z,32.38
2022-08-29T15:30:28.225Z,32.24
2022-08-29T15:32:55.732Z,32.25
2022-08-29T15:35:26.055Z,32.38
2022-08-29T15:37:55.925Z,32.22
2022-08-29T15:40:22.972Z,32.35
2022-08-29T15:42:52.374Z,32.32
2022-08-29T15:45:19.329Z,32.13
2022-08-29T15:47:59.613Z,32.03
2022-08-29T15:50:28.462Z,32.15
2022-08-29T15:52:55.426Z,31.96
2022-08-29T15:55:23.727Z,32.13
2022-08-29T15:57:52.811Z,31.89
2022-08-29T16:00:30.704Z,31.62
2022-08-29T16:03:03.710Z,31.41
2022-08-29T16:05:31.688Z,31.19
2022-08-29T16:07:58.541Z,30.71
2022-08-29T16:10:25.769Z,30.52
2022-08-29T16:12:52.457Z,30.23
2022-08-29T16:15:19.170Z,29.74
2022-08-29T16:17:45.848Z,29.67
2022-08-29T16:20:12.986Z,29.69
2022-08-29T16:22:41.922Z,29.53
2022-08-29T16:25:12.011Z,29.19
2022-08-29T16:27:38.785Z,29.03
2022-08-29T16:30:06.595Z,28.86
2022-08-29T16:32:33.416Z,28.61
2022-08-29T16:35:00.211Z,28.75
2022-08-29T16:37:29.790Z,28.73
2022-08-29T16:39:56.577Z,28.49
2022-08-29T16:42:25.605Z,28.49
2022-08-29T16:44:55.618Z,28.50
2022-08-29T16:47:24.481Z,28.42
2022-08-29T16:49:53.726Z,28.44
2022-08-29T16:52:20.398Z,28.18
2022-08-29T16:54:47.076Z,28.19
2022-08-29T16:57:13.691Z,28.26
2022-08-29T16:59:43.134Z,28.16
2022-08-29T17:02:09.934Z,28.15
2022-08-29T17:04:38.180Z,28.23
2022-08-29T17:07:05.374Z,28.15
2022-08-29T17:09:32.038Z,28.25
2022-08-29T17:11:59.255Z,28.35
2022-08-29T17:14:30.167Z,28.29
2022-08-29T17:17:00.759Z,28.15
2022-08-29T17:19:33.262Z,28.28
2022-08-29T17:22:01.019Z,28.42
2022-08-29T17:24:28.178Z,28.40
2022-08-29T17:26:54.867Z,28.46
2022-08-29T17:29:23.141Z,28.47
2022-08-29T17:31:50.219Z,28.32
2022-08-29T17:34:17.961Z,28.60
2022-08-29T17:36:46.280Z,28.65
2022-08-29T17:39:13.065Z,28.61
2022-08-29T17:41:39.872Z,28.73
2022-08-29T17:44:12.347Z,28.63
2022-08-29T17:46:39.073Z,28.59
2022-08-29T17:49:10.332Z,28.56
2022-08-29T17:51:38.454Z,28.57
2022-08-29T17:54:14.909Z,28.68
2022-08-29T17:56:48.822Z,28.65
2022-08-29T17:59:18.334Z,28.81
2022-08-29T18:01:46.921Z,28.82
2022-08-29T18:04:13.817Z,28.87
2022-08-29T18:06:43.633Z,28.93
2022-08-29T18:09:10.817Z,29.06
2022-08-29T18:11:45.625Z,29.19
2022-08-29T18:14:12.852Z,29.17
2022-08-29T18:16:39.994Z,29.10
2022-08-29T18:19:11.898Z,29.17
2022-08-29T18:21:41.093Z,29.08
2022-08-29T18:24:23.300Z,29.06
2022-08-29T18:26:51.033Z,29.18
2022-08-29T18:29:19.270Z,29.06
2022-08-29T18:31:45.928Z,29.07
2022-08-29T18:34:15.360Z,29.14
2022-08-29T18:36:43.983Z,28.96
2022-08-29T18:39:11.950Z,29.23
2022-08-29T18:41:39.014Z,29.05
2022-08-29T18:44:05.838Z,29.05
2022-08-29T18:46:33.330Z,29.16
2022-08-29T18:49:00.358Z,29.02
2022-08-29T18:51:27.669Z,29.05
2022-08-29T18:53:54.858Z,28.68
2022-08-29T18:56:29.126Z,28.87
2022-08-29T18:58:59.021Z,28.80
2022-08-29T19:01:28.484Z,28.94
2022-08-29T19:04:00.220Z,28.93
2022-08-29T19:06:27.698Z,28.85
2022-08-29T19:08:57.091Z,28.87
2022-08-29T19:11:29.247Z,28.72
2022-08-29T19:13:56.106Z,28.72
2022-08-29T19:16:23.935Z,28.85
2022-08-29T19:18:53.544Z,28.86
2022-08-29T19:21:23.295Z,28.92
2022-08-29T19:23:56.098Z,28.94
2022-08-29T19:26:52.815Z,28.89
2022-08-29T19:29:32.240Z,28.71
2022-08-29T19:31:59.673Z,28.74
2022-08-29T19:34:26.542Z,28.81
2022-08-29T19:36:53.194Z,28.60
2022-08-29T19:39:20.075Z,28.64
2022-08-29T19:41:46.867Z,28.61
2022-08-29T19:44:14.528Z,28.67
2022-08-29T19:46:45.017Z,28.73
2022-08-29T19:49:20.711Z,28.66
2022-08-29T19:51:47.407Z,28.44
2022-08-29T19:54:18.730Z,28.52
2022-08-29T19:56:48.529Z,28.42
2022-08-29T19:59:16.457Z,28.50
2022-08-29T20:01:45.816Z,28.17
2022-08-29T20:04:13.090Z,28.31
2022-08-29T20:06:40.053Z,28.28
2022-08-29T20:11:46.145Z,28.01
2022-08-29T20:14:14.276Z,28.21
2022-08-29T20:16:44.479Z,28.09
2022-08-29T20:19:12.031Z,28.28
2022-08-29T20:21:38.932Z,28.10
2022-08-29T20:24:05.919Z,27.95
2022-08-29T20:26:35.223Z,28.09
2022-08-29T20:29:06.613Z,28.14
2022-08-29T20:31:33.593Z,28.03
2022-08-29T20:34:01.759Z,28.06
2022-08-29T20:36:46.993Z,28.15
2022-08-29T20:39:16.588Z,27.99
2022-08-29T20:41:51.648Z,27.88
2022-08-29T20:44:20.428Z,27.89
2022-08-29T20:46:48.261Z,28.02
2022-08-29T20:49:19.936Z,27.92
2022-08-29T20:51:46.850Z,27.89
2022-08-29T20:54:16.712Z,28.03
2022-08-29T20:56:44.500Z,27.85
2022-08-29T20:59:11.725Z,27.92
2022-08-29T21:01:40.422Z,27.90
2022-08-29T21:04:26.873Z,27.89
2022-08-29T21:06:56.799Z,27.84
2022-08-29T21:09:23.726Z,27.76
2022-08-29T21:11:52.549Z,27.58
2022-08-29T21:14:22.967Z,27.55
2022-08-29T21:16:54.213Z,27.71
2022-08-29T21:19:22.089Z,27.64
2022-08-29T21:21:54.230Z,27.56
2022-08-29T21:24:21.082Z,27.42
2022-08-29T21:26:48.263Z,27.41
2022-08-29T21:29:15.200Z,27.35
2022-08-29T21:31:42.141Z,27.16
2022-08-29T21:34:33.037Z,27.42
2022-08-29T21:36:59.745Z,27.27
2022-08-29T21:39:28.403Z,27.13
2022-08-29T21:41:57.663Z,27.31
2022-08-29T21:44:25.823Z,27.13
2022-08-29T21:46:58.248Z,27.23
2022-08-29T21:49:26.338Z,27.09
2022-08-29T21:51:53.870Z,27.25
2022-08-29T21:54:23.645Z,27.17
2022-08-29T21:56:50.747Z,26.98
2022-08-29T21:59:21.272Z,27.13
2022-08-29T22:01:49.007Z,27.11
2022-08-29T22:04:28.538Z,26.88
2022-08-29T22:06:57.567Z,26.94
2022-08-29T22:09:26.911Z,26.79
2022-08-29T22:11:55.516Z,26.94
2022-08-29T22:14:42.120Z,26.72
2022-08-29T22:17:08.943Z,26.86
2022-08-29T22:19:39.840Z,26.78
2022-08-29T22:22:09.661Z,26.63
2022-08-29T22:24:37.552Z,26.69
2022-08-29T22:27:04.290Z,26.62
2022-08-29T22:29:30.995Z,26.59
2022-08-29T22:31:57.730Z,26.47
2022-08-29T22:34:26.826Z,26.47
2022-08-29T22:36:56.020Z,26.51
2022-08-29T22:39:22.719Z,26.44
2022-08-29T22:41:50.660Z,26.23
2022-08-29T22:47:05.840Z,26.44
2022-08-29T22:49:33.408Z,26.31
2022-08-29T22:52:01.224Z,26.12
2022-08-29T22:54:34.996Z,25.99
2022-08-29T22:57:15.540Z,25.97
2022-08-29T22:59:43.509Z,26.21
2022-08-29T23:02:11.535Z,26.23
2022-08-29T23:04:39.304Z,26.18
2022-08-29T23:07:08.457Z,26.19
2022-08-29T23:09:39.525Z,25.87
2022-08-29T23:12:07.722Z,26.09
2022-08-29T23:14:37.516Z,26.02
2022-08-29T23:17:06.956Z,26.02
2022-08-29T23:19:33.956Z,25.94
2022-08-29T23:22:02.325Z,26.07
2022-08-29T23:24:29.972Z,26.00
2022-08-29T23:26:59.585Z,26.16
2022-08-29T23:29:27.271Z,26.01
2022-08-29T23:31:56.120Z,26.03
2022-08-29T23:34:23.634Z,26.08
2022-08-29T23:36:50.413Z,25.97
2022-08-29T23:39:17.167Z,26.07
2022-08-29T23:41:43.906Z,26.00
2022-08-29T23:44:10.666Z,25.85
2022-08-29T23:46:38.693Z,25.98
2022-08-29T23:49:08.807Z,25.94
2022-08-29T23:51:36.067Z,26.07
2022-08-29T23:54:02.743Z,26.04
2022-08-29T23:56:29.381Z,25.95
2022-08-29T23:58:59.385Z,26.01
